Main page
METAR-TAF:

METAR-TAF

Airports :

Belfast International Airport

Belfast, Northern Ireland

latitude: 54-39N, longitude: 006-13W, elevation: 81 m

Current weather observation

The report was made 17 minutes ago, at 20:20 UTC
Wind 5 kt from the North, varying between Northwest and North/Northeast
Temperature 13°C
Humidity 72%
Pressure 1032 hPa
Visibility 10 km or more
no clouds below 1500 m and no cumulonimbus

METAR: EGAA 222020Z 36005KT 310V020 CAVOK 13/08 Q1032

Time: 21:37 (20:37 UTC)

Forecast

The report was made 3 hours and 39 minutes ago, at 16:58 UTC
Forecast valid from 22 at 18 UTC to 23 at 18 UTC
Wind 6 kt from the North/Northwest
Visibility 10 km or more
Few clouds at a height of 3000 ft

TAF: EGAA 221658Z 2218/2318 33006KT 9999 FEW030

Weather observations and forecasts of more than 4000 airports (METAR and TAF reports).

The available stations are represented by yellow and red dots on the map.

Hover mouse over dot to see the name of the station.

Then click to see weather observations and forecasts.

To change the map : click on the green buttons with a black cross to zoom in, on the green button with a dash to zoom out, or on the green arrows for adjacent maps.


METAR-TAF: